createdAt,value
2023-03-12T00:01:43.321Z,100327.34
2023-03-12T00:03:45.300Z,100326.53
2023-03-12T00:05:46.934Z,100324.88
2023-03-12T00:07:48.958Z,100326.53
2023-03-12T00:09:50.525Z,100322.50
2023-03-12T00:11:52.138Z,100321.94
2023-03-12T00:13:58.919Z,100317.66
2023-03-12T00:16:04.766Z,100317.09
2023-03-12T00:18:06.435Z,100318.69
2023-03-12T00:20:09.950Z,100325.03
2023-03-12T00:22:11.634Z,100318.88
2023-03-12T00:24:15.751Z,100326.66
2023-03-12T00:26:18.471Z,100322.63
2023-03-12T00:28:20.035Z,100333.59
2023-03-12T00:30:23.123Z,100330.84
2023-03-12T00:32:24.938Z,100324.69
2023-03-12T00:34:26.569Z,100331.66
2023-03-12T00:36:31.131Z,100330.06
2023-03-12T00:38:32.854Z,100330.78
2023-03-12T00:40:34.525Z,100327.31
2023-03-12T00:42:36.166Z,100325.69
2023-03-12T00:44:37.861Z,100327.38
2023-03-12T00:46:40.972Z,100335.03
2023-03-12T00:48:42.781Z,100327.78
2023-03-12T00:50:44.481Z,100325.91
2023-03-12T00:52:46.051Z,100327.47
2023-03-12T00:54:47.637Z,100332.06
2023-03-12T00:56:49.892Z,100327.78
2023-03-12T00:58:51.444Z,100322.97
2023-03-12T01:00:53.239Z,100319.00
2023-03-12T01:02:56.414Z,100317.16
2023-03-12T01:04:57.968Z,100320.31
2023-03-12T01:06:59.528Z,100323.22
2023-03-12T01:09:01.493Z,100321.41
2023-03-12T01:11:03.152Z,100325.97
2023-03-12T01:13:04.731Z,100322.75
2023-03-12T01:15:07.871Z,100314.97
2023-03-12T01:17:09.846Z,100317.66
2023-03-12T01:19:12.851Z,100311.19
2023-03-12T01:21:14.652Z,100309.34
2023-03-12T01:23:16.288Z,100321.50
2023-03-12T01:25:17.948Z,100322.00
2023-03-12T01:27:19.520Z,100322.56
2023-03-12T01:29:21.145Z,100318.38
2023-03-12T01:31:22.692Z,100318.44
2023-03-12T01:33:24.284Z,100313.13
2023-03-12T01:35:27.388Z,100313.13
2023-03-12T01:37:29.504Z,100324.16
2023-03-12T01:39:31.222Z,100318.59
2023-03-12T01:41:33.948Z,100322.06
2023-03-12T01:43:38.662Z,100322.66
2023-03-12T01:46:02.264Z,100325.28
2023-03-12T01:48:04.379Z,100329.09
2023-03-12T01:50:06.438Z,100327.13
2023-03-12T01:52:13.512Z,100317.97
2023-03-12T01:54:18.573Z,100317.94
2023-03-12T01:56:21.730Z,100304.53
2023-03-12T01:58:23.529Z,100303.16
2023-03-12T02:00:27.047Z,100296.75
2023-03-12T02:02:29.151Z,100296.16
2023-03-12T02:04:34.138Z,100289.75
2023-03-12T02:06:42.375Z,100287.63
2023-03-12T02:08:47.886Z,100287.34
2023-03-12T02:10:49.622Z,100287.06
2023-03-12T02:12:51.780Z,100290.22
2023-03-12T02:14:53.574Z,100291.56
2023-03-12T02:16:55.844Z,100290.53
2023-03-12T02:19:01.404Z,100291.88
2023-03-12T02:21:12.419Z,100292.41
2023-03-12T02:23:21.394Z,100288.97
2023-03-12T02:25:30.945Z,100283.13
2023-03-12T02:27:36.161Z,100279.63
2023-03-12T02:29:41.221Z,100281.81
2023-03-12T02:31:45.877Z,100277.03
2023-03-12T02:33:47.522Z,100268.94
2023-03-12T02:35:49.271Z,100279.94
2023-03-12T02:37:52.856Z,100278.78
2023-03-12T02:40:00.147Z,100275.66
2023-03-12T02:42:03.584Z,100276.72
2023-03-12T02:44:09.829Z,100280.66
2023-03-12T02:46:12.310Z,100267.56
2023-03-12T02:48:14.094Z,100273.44
2023-03-12T02:50:16.180Z,100269.03
2023-03-12T02:52:17.768Z,100271.41
2023-03-12T02:54:20.758Z,100264.41
2023-03-12T02:56:23.905Z,100271.06
2023-03-12T02:58:26.940Z,100272.19
2023-03-12T03:00:28.542Z,100266.56
2023-03-12T03:02:30.090Z,100272.25
2023-03-12T03:04:32.092Z,100263.66
2023-03-12T03:06:35.209Z,100271.31
2023-03-12T03:08:36.831Z,100260.06
2023-03-12T03:10:38.497Z,100259.84
2023-03-12T03:12:40.084Z,100262.28
2023-03-12T03:14:42.993Z,100255.25
2023-03-12T03:16:44.628Z,100262.16
2023-03-12T03:18:46.343Z,100265.59
2023-03-12T03:20:55.453Z,100258.31
2023-03-12T03:22:57.134Z,100260.69
2023-03-12T03:24:58.696Z,100260.69
2023-03-12T03:27:00.241Z,100258.06
2023-03-12T03:29:01.863Z,100264.13
2023-03-12T03:31:05.096Z,100252.13
2023-03-12T03:33:06.656Z,100255.09
2023-03-12T03:35:09.227Z,100256.66
2023-03-12T03:37:10.910Z,100254.53
2023-03-12T03:39:12.493Z,100260.41
2023-03-12T03:41:14.845Z,100260.09
2023-03-12T03:43:16.560Z,100249.19
2023-03-12T03:45:18.380Z,100246.50
2023-03-12T03:47:21.982Z,100254.91
2023-03-12T03:49:23.983Z,100252.78
2023-03-12T03:51:25.508Z,100256.06
2023-03-12T03:53:27.131Z,100263.03
2023-03-12T03:55:29.083Z,100260.13
2023-03-12T03:57:30.894Z,100259.91
2023-03-12T03:59:32.495Z,100272.25
2023-03-12T04:01:34.118Z,100269.31
2023-03-12T04:03:37.153Z,100270.09
2023-03-12T04:05:38.796Z,100264.75
2023-03-12T04:07:40.553Z,100266.66
2023-03-12T04:09:42.512Z,100273.09
2023-03-12T04:11:44.187Z,100259.19
2023-03-12T04:13:46.623Z,100258.91
2023-03-12T04:15:49.392Z,100248.69
2023-03-12T04:17:51.142Z,100245.78
2023-03-12T04:19:54.393Z,100245.47
2023-03-12T04:21:55.969Z,100242.34
2023-03-12T04:23:57.691Z,100246.44
2023-03-12T04:25:59.552Z,100244.00
2023-03-12T04:28:01.272Z,100240.81
2023-03-12T04:30:03.548Z,100246.97
2023-03-12T04:32:06.369Z,100262.72
2023-03-12T04:34:08.059Z,100260.03
2023-03-12T04:36:12.119Z,100262.16
2023-03-12T04:38:13.766Z,100262.16
2023-03-12T04:40:15.394Z,100247.50
2023-03-12T04:42:17.102Z,100245.88
2023-03-12T04:44:18.650Z,100241.31
2023-03-12T04:46:20.222Z,100244.25
2023-03-12T04:48:21.810Z,100251.78
2023-03-12T04:50:23.430Z,100248.84
2023-03-12T04:52:26.613Z,100252.63
2023-03-12T04:54:28.172Z,100251.00
2023-03-12T04:56:30.076Z,100256.38
2023-03-12T04:58:31.654Z,100258.22
2023-03-12T05:00:33.257Z,100244.53
2023-03-12T05:02:34.902Z,100252.00
2023-03-12T05:04:37.192Z,100254.13
2023-03-12T05:06:38.815Z,100248.75
2023-03-12T05:08:41.785Z,100249.81
2023-03-12T05:10:43.304Z,100244.16
2023-03-12T05:12:44.919Z,100249.53
2023-03-12T05:14:46.459Z,100251.94
2023-03-12T05:16:48.273Z,100254.03
2023-03-12T05:18:50.008Z,100240.06
2023-03-12T05:20:58.776Z,100241.13
2023-03-12T05:23:00.367Z,100237.41
2023-03-12T05:25:03.952Z,100248.16
2023-03-12T05:27:06.758Z,100248.84
2023-03-12T05:29:08.574Z,100255.25
2023-03-12T05:31:11.354Z,100253.41
2023-03-12T05:33:13.043Z,100253.34
2023-03-12T05:35:14.580Z,100253.84
2023-03-12T05:37:16.191Z,100246.06
2023-03-12T05:39:17.793Z,100241.22
2023-03-12T05:41:23.117Z,100242.34
2023-03-12T05:43:24.864Z,100236.69
2023-03-12T05:45:26.589Z,100229.94
2023-03-12T05:47:28.294Z,100236.91
2023-03-12T05:49:30.668Z,100232.59
2023-03-12T05:51:32.403Z,100240.56
2023-03-12T05:53:33.982Z,100231.97
2023-03-12T05:55:35.767Z,100231.19
2023-03-12T05:57:41.722Z,100235.69
2023-03-12T05:59:43.340Z,100226.31
2023-03-12T06:01:44.924Z,100219.91
2023-03-12T06:03:46.847Z,100223.63
2023-03-12T06:05:48.468Z,100216.91
2023-03-12T06:07:50.441Z,100229.78
2023-03-12T06:09:52.012Z,100227.16
2023-03-12T06:11:53.599Z,100232.53
2023-03-12T06:13:56.976Z,100239.00
2023-03-12T06:16:02.719Z,100239.31
2023-03-12T06:18:04.566Z,100237.97
2023-03-12T06:20:07.784Z,100232.41
2023-03-12T06:22:09.501Z,100239.66
2023-03-12T06:24:11.028Z,100235.66
2023-03-12T06:26:13.883Z,100231.94
2023-03-12T06:28:15.484Z,100225.53
2023-03-12T06:30:18.702Z,100225.25
2023-03-12T06:32:20.309Z,100226.06
2023-03-12T06:34:21.948Z,100219.59
2023-03-12T06:36:23.518Z,100227.34
2023-03-12T06:38:25.697Z,100223.09
2023-03-12T06:40:27.267Z,100224.69
2023-03-12T06:42:28.779Z,100219.09
2023-03-12T06:44:30.396Z,100217.78
2023-03-12T06:46:33.498Z,100222.06
2023-03-12T06:48:35.920Z,100223.69
2023-03-12T06:50:37.595Z,100220.75
2023-03-12T06:52:39.196Z,100217.88
2023-03-12T06:54:41.033Z,100220.84
2023-03-12T06:56:42.646Z,100216.53
2023-03-12T06:58:44.698Z,100215.75
2023-03-12T07:00:46.391Z,100206.16
2023-03-12T07:02:49.611Z,100216.59
2023-03-12T07:04:51.211Z,100211.81
2023-03-12T07:06:52.822Z,100211.81
2023-03-12T07:08:54.395Z,100214.19
2023-03-12T07:10:56.128Z,100213.69
2023-03-12T07:12:57.663Z,100207.78
2023-03-12T07:14:59.236Z,100211.25
2023-03-12T07:17:00.873Z,100218.16
2023-03-12T07:19:03.916Z,100217.34
2023-03-12T07:21:05.829Z,100209.03
2023-03-12T07:23:07.674Z,100220.75
2023-03-12T07:25:09.705Z,100222.06
2023-03-12T07:27:11.286Z,100221.81
2023-03-12T07:29:12.984Z,100216.78
2023-03-12T07:31:15.123Z,100215.16
2023-03-12T07:33:18.507Z,100210.91
2023-03-12T07:35:21.628Z,100206.66
2023-03-12T07:37:23.737Z,100202.16
2023-03-12T07:39:25.687Z,100203.50
2023-03-12T07:41:28.338Z,100216.09
2023-03-12T07:43:30.007Z,100220.06
2023-03-12T07:45:31.781Z,100215.81
2023-03-12T07:47:33.691Z,100208.28
2023-03-12T07:49:35.568Z,100202.44
2023-03-12T07:51:38.589Z,100208.06
2023-03-12T07:53:40.255Z,100207.22
2023-03-12T07:55:44.489Z,100215.25
2023-03-12T07:57:46.112Z,100216.31
2023-03-12T07:59:48.341Z,100217.69
2023-03-12T08:01:50.104Z,100222.78
2023-03-12T08:03:51.728Z,100225.75
2023-03-12T08:05:58.086Z,100228.72
2023-03-12T08:08:01.121Z,100230.09
2023-03-12T08:10:05.262Z,100222.28
2023-03-12T08:12:07.516Z,100227.34
2023-03-12T08:14:09.430Z,100237.53
2023-03-12T08:16:11.036Z,100244.50
2023-03-12T08:18:12.762Z,100233.78
2023-03-12T08:20:14.802Z,100222.28
2023-03-12T08:22:16.375Z,100235.91
2023-03-12T08:24:20.013Z,100238.38
2023-03-12T08:26:21.615Z,100232.81
2023-03-12T08:28:24.317Z,100222.06
2023-03-12T08:30:27.769Z,100226.59
2023-03-12T08:32:31.632Z,100224.53
2023-03-12T08:34:33.347Z,100226.09
2023-03-12T08:36:34.971Z,100229.34
2023-03-12T08:38:36.818Z,100221.31
2023-03-12T08:40:39.785Z,100219.63
2023-03-12T08:42:42.297Z,100214.56
2023-03-12T08:44:44.213Z,100216.88
2023-03-12T08:46:45.775Z,100224.13
2023-03-12T08:48:47.901Z,100225.81
2023-03-12T08:50:49.483Z,100222.34
2023-03-12T08:52:51.038Z,100210.75
2023-03-12T08:54:52.721Z,100209.97
2023-03-12T08:56:55.620Z,100209.97
2023-03-12T08:58:58.353Z,100206.53
2023-03-12T09:01:00.032Z,100211.09
2023-03-12T09:03:01.665Z,100207.69
2023-03-12T09:05:03.689Z,100206.09
2023-03-12T09:07:06.121Z,100206.91
2023-03-12T09:09:08.323Z,100204.53
2023-03-12T09:11:10.986Z,100193.84
2023-03-12T09:13:13.960Z,100203.22
2023-03-12T09:15:15.838Z,100202.63
2023-03-12T09:17:17.785Z,100212.88
2023-03-12T09:19:19.369Z,100205.34
2023-03-12T09:21:21.733Z,100212.09
2023-03-12T09:23:23.914Z,100214.50
2023-03-12T09:25:25.643Z,100210.97
2023-03-12T09:27:27.213Z,100214.72
2023-03-12T09:29:30.550Z,100218.22
2023-03-12T09:31:32.837Z,100221.38
2023-03-12T09:33:34.348Z,100217.34
2023-03-12T09:35:36.279Z,100218.63
2023-03-12T09:37:38.687Z,100217.63
2023-03-12T09:39:40.280Z,100226.28
2023-03-12T09:41:44.407Z,100230.56
2023-03-12T09:43:51.709Z,100231.06
2023-03-12T09:45:56.735Z,100236.44
2023-03-12T09:48:00.894Z,100231.03
2023-03-12T09:50:16.798Z,100237.03
2023-03-12T09:52:23.993Z,100236.25
2023-03-12T09:54:33.114Z,100230.63
2023-03-12T09:56:35.107Z,100228.31
2023-03-12T09:58:38.265Z,100235.91
2023-03-12T10:00:40.138Z,100243.84
2023-03-12T10:03:16.852Z,100238.50
2023-03-12T10:05:24.342Z,100242.25
2023-03-12T10:07:32.363Z,100258.06
2023-03-12T10:10:01.682Z,100253.19
2023-03-12T10:12:14.755Z,100255.06
2023-03-12T10:14:28.251Z,100269.03
2023-03-12T10:16:50.435Z,100275.53
2023-03-12T10:19:11.298Z,100261.50
2023-03-12T10:21:20.040Z,100269.31
2023-03-12T10:23:42.884Z,100274.41
2023-03-12T10:25:50.401Z,100263.13
2023-03-12T10:27:52.047Z,100259.38
2023-03-12T10:29:55.095Z,100263.16
2023-03-12T10:32:00.713Z,100263.69
2023-03-12T10:34:12.720Z,100272.28
2023-03-12T10:36:17.937Z,100259.44
2023-03-12T10:38:26.756Z,100267.56
2023-03-12T10:40:30.714Z,100258.50
2023-03-12T10:42:32.748Z,100255.06
2023-03-12T10:44:34.876Z,100258.56
2023-03-12T10:46:51.124Z,100254.28
2023-03-12T10:49:29.589Z,100252.16
2023-03-12T10:51:31.126Z,100250.81
2023-03-12T10:53:34.766Z,100251.09
2023-03-12T10:55:36.384Z,100252.16
2023-03-12T10:57:41.081Z,100254.03
2023-03-12T10:59:44.340Z,100251.41
2023-03-12T11:01:52.610Z,100243.88
2023-03-12T11:04:14.201Z,100256.75
2023-03-12T11:06:23.337Z,100250.31
2023-03-12T11:08:27.475Z,100252.75
2023-03-12T11:10:42.313Z,100251.91
2023-03-12T11:12:53.866Z,100253.25
2023-03-12T11:14:55.462Z,100257.31
2023-03-12T11:16:57.723Z,100252.22
2023-03-12T11:19:01.041Z,100255.16
2023-03-12T11:21:16.201Z,100262.16
2023-03-12T11:23:22.580Z,100264.56
2023-03-12T11:25:25.895Z,100258.66
2023-03-12T11:27:40.150Z,100253.03
2023-03-12T11:29:47.948Z,100263.22
2023-03-12T11:31:58.812Z,100261.63
2023-03-12T11:34:05.932Z,100264.06
2023-03-12T11:36:22.860Z,100257.59
2023-03-12T11:38:34.481Z,100244.97
2023-03-12T11:40:58.713Z,100246.06
2023-03-12T11:43:15.864Z,100240.16
2023-03-12T11:45:26.948Z,100236.38
2023-03-12T11:47:44.953Z,100239.28
2023-03-12T11:50:15.181Z,100233.34
2023-03-12T11:52:27.339Z,100241.91
2023-03-12T11:55:08.249Z,100235.47
2023-03-12T11:57:19.043Z,100244.34
2023-03-12T11:59:32.772Z,100243.00
2023-03-12T12:01:56.473Z,100239.22
2023-03-12T12:04:27.895Z,100245.56
2023-03-12T12:06:38.384Z,100237.28
2023-03-12T12:08:52.829Z,100236.09
2023-03-12T12:11:05.916Z,100230.75
2023-03-12T12:13:15.844Z,100217.84
2023-03-12T12:15:26.879Z,100206.53
2023-03-12T12:17:44.211Z,100212.78
2023-03-12T12:20:01.142Z,100203.69
2023-03-12T12:22:24.413Z,100194.84
2023-03-12T12:24:37.759Z,100198.81
2023-03-12T12:26:47.756Z,100190.41
2023-03-12T12:29:17.287Z,100190.28
2023-03-12T12:31:29.153Z,100190.47
2023-03-12T12:33:45.280Z,100192.03
2023-03-12T12:35:47.071Z,100189.13
2023-03-12T12:37:54.165Z,100185.28
2023-03-12T12:40:05.240Z,100180.50
2023-03-12T12:42:15.058Z,100188.41
2023-03-12T12:44:21.180Z,100183.41
2023-03-12T12:46:25.370Z,100180.31
2023-03-12T12:48:32.868Z,100181.91
2023-03-12T12:50:38.446Z,100182.78
2023-03-12T12:52:41.008Z,100183.88
2023-03-12T12:54:51.744Z,100187.69
2023-03-12T12:57:00.550Z,100172.31
2023-03-12T12:59:26.542Z,100183.91
2023-03-12T13:01:29.353Z,100177.78
2023-03-12T13:03:31.456Z,100187.56
2023-03-12T13:05:46.006Z,100184.97
2023-03-12T13:07:48.718Z,100190.69
2023-03-12T13:09:52.418Z,100193.75
2023-03-12T13:11:55.402Z,100174.88
2023-03-12T13:14:21.219Z,100175.78
2023-03-12T13:16:32.913Z,100160.59
2023-03-12T13:18:36.820Z,100156.59
2023-03-12T13:20:47.297Z,100156.31
2023-03-12T13:23:03.323Z,100154.31
2023-03-12T13:25:23.051Z,100165.34
2023-03-12T13:27:28.819Z,100152.63
2023-03-12T13:29:40.330Z,100147.72
2023-03-12T13:31:42.797Z,100144.13
2023-03-12T13:33:45.855Z,100142.53
2023-03-12T13:36:20.196Z,100141.16
2023-03-12T13:38:36.092Z,100137.94
2023-03-12T13:40:54.929Z,100122.16
2023-03-12T13:43:05.372Z,100119.25
2023-03-12T13:45:40.593Z,100119.91
2023-03-12T13:47:43.170Z,100121.91
2023-03-12T13:49:52.307Z,100112.50
2023-03-12T13:51:57.859Z,100118.94
2023-03-12T13:54:01.639Z,100110.09
2023-03-12T13:56:07.237Z,100104.19
2023-03-12T13:58:13.638Z,100096.78
2023-03-12T14:00:19.894Z,100106.88
2023-03-12T14:02:27.038Z,100099.38
2023-03-12T14:04:40.101Z,100099.47
2023-03-12T14:06:58.065Z,100102.38
2023-03-12T14:09:24.484Z,100109.78
2023-03-12T14:11:45.036Z,100104.06
2023-03-12T14:14:21.976Z,100096.63
2023-03-12T14:16:33.613Z,100101.94
2023-03-12T14:18:38.290Z,100098.31
2023-03-12T14:20:40.555Z,100100.09
2023-03-12T14:22:45.842Z,100111.13
2023-03-12T14:24:51.039Z,100108.72
2023-03-12T14:26:55.310Z,100107.00
2023-03-12T14:29:00.557Z,100111.38
2023-03-12T14:31:04.890Z,100121.09
2023-03-12T14:33:09.970Z,100113.16
2023-03-12T14:35:19.764Z,100122.28
2023-03-12T14:37:25.329Z,100116.28
2023-03-12T14:39:31.922Z,100113.06
2023-03-12T14:41:39.621Z,100116.56
2023-03-12T14:43:43.156Z,100109.53
2023-03-12T14:45:44.735Z,100104.94
2023-03-12T14:47:48.550Z,100100.22
2023-03-12T14:49:50.883Z,100108.75
2023-03-12T14:51:54.596Z,100102.53
2023-03-12T14:53:56.746Z,100101.91
2023-03-12T14:56:03.095Z,100098.22
2023-03-12T14:58:06.333Z,100099.53
2023-03-12T15:00:15.274Z,100108.34
2023-03-12T15:02:19.422Z,100104.25
2023-03-12T15:04:24.327Z,100099.13
2023-03-12T15:06:29.926Z,100098.66
2023-03-12T15:08:39.611Z,100098.03
2023-03-12T15:10:48.320Z,100100.63
2023-03-12T15:12:51.271Z,100094.41
2023-03-12T15:14:55.760Z,100101.41
2023-03-12T15:17:00.057Z,100104.25
2023-03-12T15:19:03.025Z,100094.81
2023-03-12T15:21:06.425Z,100087.69
2023-03-12T15:23:11.756Z,100093.44
2023-03-12T15:25:27.061Z,100096.63
2023-03-12T15:27:33.312Z,100096.31
2023-03-12T15:29:41.473Z,100098.03
2023-03-12T15:31:44.841Z,100088.19
2023-03-12T15:34:00.227Z,100097.84
2023-03-12T15:36:04.932Z,100099.78
2023-03-12T15:38:14.046Z,100089.41
2023-03-12T15:40:21.672Z,100085.91
2023-03-12T15:42:26.560Z,100087.19
2023-03-12T15:44:34.195Z,100081.59
2023-03-12T15:46:35.922Z,100084.44
2023-03-12T15:48:40.371Z,100085.06
2023-03-12T15:50:45.151Z,100082.63
2023-03-12T15:53:02.746Z,100100.69
2023-03-12T15:55:21.994Z,100104.50
2023-03-12T15:57:25.828Z,100106.38
2023-03-12T15:59:28.449Z,100106.88
2023-03-12T16:01:30.352Z,100102.03
2023-03-12T16:03:31.959Z,100105.34
2023-03-12T16:05:36.160Z,100096.72
2023-03-12T16:07:38.363Z,100099.91
2023-03-12T16:09:39.959Z,100102.31
2023-03-12T16:11:41.869Z,100108.94
2023-03-12T16:13:45.690Z,100108.31
2023-03-12T16:15:48.261Z,100112.94
2023-03-12T16:17:49.926Z,100103.91
2023-03-12T16:19:51.551Z,100115.25
2023-03-12T16:21:53.212Z,100109.00
2023-03-12T16:23:54.804Z,100109.50
2023-03-12T16:25:58.358Z,100113.03
2023-03-12T16:28:03.178Z,100113.22
2023-03-12T16:30:14.859Z,100109.00
2023-03-12T16:32:17.420Z,100109.63
2023-03-12T16:34:19.082Z,100107.31
2023-03-12T16:36:20.775Z,100104.91
2023-03-12T16:38:22.577Z,100103.91
2023-03-12T16:40:33.326Z,100106.69
2023-03-12T16:42:36.289Z,100104.78
2023-03-12T16:44:38.046Z,100101.41
2023-03-12T16:46:41.143Z,100099.50
2023-03-12T16:48:42.819Z,100113.81
2023-03-12T16:50:49.536Z,100109.69
2023-03-12T16:52:51.866Z,100114.31
2023-03-12T16:54:53.927Z,100120.34
2023-03-12T16:56:55.852Z,100112.63
2023-03-12T16:59:06.744Z,100110.19
2023-03-12T17:01:12.274Z,100120.34
2023-03-12T17:03:22.003Z,100121.16
2023-03-12T17:05:23.930Z,100128.25
2023-03-12T17:07:25.702Z,100131.28
2023-03-12T17:09:27.245Z,100135.59
2023-03-12T17:11:31.637Z,100129.56
2023-03-12T17:13:36.593Z,100139.78
2023-03-12T17:15:39.351Z,100140.09
2023-03-12T17:17:41.026Z,100144.41
2023-03-12T17:19:43.944Z,100148.22
2023-03-12T17:21:46.584Z,100144.69
2023-03-12T17:23:49.899Z,100152.81
2023-03-12T17:25:51.739Z,100163.63
2023-03-12T17:27:53.827Z,100164.94
2023-03-12T17:29:55.448Z,100153.63
2023-03-12T17:31:57.011Z,100167.75
2023-03-12T17:33:58.643Z,100160.75
2023-03-12T17:36:03.805Z,100172.84
2023-03-12T17:38:05.807Z,100174.19
2023-03-12T17:40:09.013Z,100173.34
2023-03-12T17:42:10.594Z,100175.28
2023-03-12T17:44:12.235Z,100177.47
2023-03-12T17:46:13.919Z,100179.69
2023-03-12T17:48:16.189Z,100182.88
2023-03-12T17:50:18.069Z,100184.00
2023-03-12T17:52:21.081Z,100186.38
2023-03-12T17:54:22.770Z,100182.88
2023-03-12T17:56:24.545Z,100192.31
2023-03-12T17:58:26.223Z,100189.41
2023-03-12T18:00:27.827Z,100186.78
2023-03-12T18:02:29.405Z,100191.91
2023-03-12T18:04:31.386Z,100199.22
2023-03-12T18:06:32.997Z,100191.50
2023-03-12T18:08:36.048Z,100189.50
2023-03-12T18:10:38.053Z,100193.34
2023-03-12T18:12:40.000Z,100196.03
2023-03-12T18:14:41.620Z,100195.41
2023-03-12T18:16:43.332Z,100191.91
2023-03-12T18:18:44.972Z,100199.44
2023-03-12T18:20:48.123Z,100204.94
2023-03-12T18:22:49.786Z,100196.50
2023-03-12T18:24:52.691Z,100194.44
2023-03-12T18:26:54.296Z,100193.44
2023-03-12T18:28:56.152Z,100180.69
2023-03-12T18:30:57.770Z,100186.59
2023-03-12T18:32:59.500Z,100181.19
2023-03-12T18:35:01.217Z,100171.28
2023-03-12T18:37:02.852Z,100179.50
2023-03-12T18:39:04.698Z,100174.97
2023-03-12T18:41:10.607Z,100176.31
2023-03-12T18:43:12.382Z,100171.19
2023-03-12T18:45:17.278Z,100186.31
2023-03-12T18:47:19.358Z,100183.72
2023-03-12T18:49:21.296Z,100187.72
2023-03-12T18:51:23.007Z,100181.22
2023-03-12T18:53:24.849Z,100174.78
2023-03-12T18:55:26.482Z,100178.00
2023-03-12T18:57:29.567Z,100178.13
2023-03-12T18:59:32.421Z,100175.09
2023-03-12T19:01:34.133Z,100172.72
2023-03-12T19:03:35.713Z,100178.91
2023-03-12T19:05:37.558Z,100178.72
2023-03-12T19:07:39.688Z,100185.72
2023-03-12T19:09:41.250Z,100188.81
2023-03-12T19:11:42.914Z,100183.94
2023-03-12T19:13:49.425Z,100182.00
2023-03-12T19:15:57.371Z,100179.00
2023-03-12T19:17:59.114Z,100183.09
2023-03-12T19:20:00.696Z,100189.53
2023-03-12T19:22:02.244Z,100199.53
2023-03-12T19:24:04.485Z,100192.03
2023-03-12T19:26:06.425Z,100195.22
2023-03-12T19:28:08.058Z,100202.75
2023-03-12T19:30:12.599Z,100199.25
2023-03-12T19:32:14.132Z,100200.63
2023-03-12T19:34:15.745Z,100200.94
2023-03-12T19:36:17.455Z,100197.06
2023-03-12T19:38:19.080Z,100196.75
2023-03-12T19:40:20.685Z,100195.91
2023-03-12T19:42:22.778Z,100200.84
2023-03-12T19:44:24.474Z,100196.22
2023-03-12T19:46:27.446Z,100197.25
2023-03-12T19:48:29.060Z,100193.72
2023-03-12T19:50:30.569Z,100196.75
2023-03-12T19:52:32.244Z,100195.63
2023-03-12T19:54:34.037Z,100193.72
2023-03-12T19:56:35.619Z,100190.09
2023-03-12T19:58:37.207Z,100194.41
2023-03-12T20:00:38.798Z,100190.72
2023-03-12T20:02:41.948Z,100189.31
2023-03-12T20:04:43.543Z,100191.22
2023-03-12T20:06:45.303Z,100186.63
2023-03-12T20:08:46.874Z,100187.91
2023-03-12T20:10:48.830Z,100195.84
2023-03-12T20:12:50.389Z,100192.34
2023-03-12T20:14:52.242Z,100190.94
2023-03-12T20:16:53.857Z,100185.91
2023-03-12T20:18:57.385Z,100191.72
2023-03-12T20:20:58.999Z,100189.44
2023-03-12T20:23:00.662Z,100186.72
2023-03-12T20:25:02.716Z,100184.28
2023-03-12T20:27:04.642Z,100187.31
2023-03-12T20:29:06.753Z,100182.22
2023-03-12T20:31:09.132Z,100185.72
2023-03-12T20:33:10.720Z,100183.31
2023-03-12T20:35:13.681Z,100186.03
2023-03-12T20:37:15.249Z,100180.09
2023-03-12T20:39:16.806Z,100178.50
2023-03-12T20:41:18.383Z,100183.59
2023-03-12T20:43:19.969Z,100182.81
2023-03-12T20:45:21.508Z,100182.81
2023-03-12T20:47:23.362Z,100170.97
2023-03-12T20:49:25.294Z,100178.81
2023-03-12T20:51:28.216Z,100170.69
2023-03-12T20:53:29.875Z,100162.59
2023-03-12T20:55:31.691Z,100169.56
2023-03-12T20:57:34.194Z,100166.66
2023-03-12T20:59:36.025Z,100165.28
2023-03-12T21:01:37.949Z,100153.66
2023-03-12T21:03:39.546Z,100156.66
2023-03-12T21:05:41.652Z,100156.94
2023-03-12T21:07:44.702Z,100155.06
2023-03-12T21:09:46.261Z,100157.25
2023-03-12T21:11:47.901Z,100157.06
2023-03-12T21:13:49.491Z,100154.66
2023-03-12T21:15:51.043Z,100154.97
2023-03-12T21:17:52.602Z,100153.06
2023-03-12T21:19:54.381Z,100156.97
2023-03-12T21:21:56.121Z,100152.16
2023-03-12T21:24:00.340Z,100157.38
2023-03-12T21:26:04.219Z,100148.28
2023-03-12T21:28:07.330Z,100162.47
2023-03-12T21:30:10.326Z,100157.06
2023-03-12T21:32:11.934Z,100150.75
2023-03-12T21:34:13.622Z,100149.66
2023-03-12T21:36:15.418Z,100146.44
2023-03-12T21:38:17.369Z,100143.03
2023-03-12T21:40:20.504Z,100140.31
2023-03-12T21:42:22.138Z,100137.75
2023-03-12T21:44:24.226Z,100135.34
2023-03-12T21:46:25.949Z,100136.22
2023-03-12T21:48:27.521Z,100137.13
2023-03-12T21:50:29.149Z,100132.31
2023-03-12T21:52:30.708Z,100133.94
2023-03-12T21:54:32.993Z,100129.00
2023-03-12T21:56:36.105Z,100134.13
2023-03-12T21:58:37.753Z,100130.09
2023-03-12T22:00:39.333Z,100124.63
2023-03-12T22:02:41.282Z,100124.63
2023-03-12T22:04:42.869Z,100118.41
2023-03-12T22:06:44.479Z,100120.63
2023-03-12T22:08:47.109Z,100113.59
2023-03-12T22:10:49.049Z,100111.09
2023-03-12T22:12:51.946Z,100104.91
2023-03-12T22:14:53.835Z,100102.78
2023-03-12T22:16:55.377Z,100101.19
2023-03-12T22:18:57.070Z,100096.28
2023-03-12T22:21:00.276Z,100093.41
2023-03-12T22:23:01.851Z,100085.38
2023-03-12T22:25:08.624Z,100084.28
2023-03-12T22:27:10.219Z,100091.88
2023-03-12T22:29:13.289Z,100084.78
2023-03-12T22:31:14.985Z,100084.59
2023-03-12T22:33:16.655Z,100067.34
2023-03-12T22:35:18.287Z,100066.47
2023-03-12T22:37:19.935Z,100068.16
2023-03-12T22:39:21.540Z,100079.03
2023-03-12T22:41:25.454Z,100082.53
2023-03-12T22:43:27.281Z,100085.22
2023-03-12T22:45:30.447Z,100084.13
2023-03-12T22:47:32.161Z,100075.03
2023-03-12T22:49:33.817Z,100075.81
2023-03-12T22:51:35.498Z,100077.44
2023-03-12T22:53:37.255Z,100080.44
2023-03-12T22:55:38.819Z,100078.53
2023-03-12T22:57:40.434Z,100079.03
2023-03-12T22:59:41.962Z,100071.22
2023-03-12T23:01:44.919Z,100062.31
2023-03-12T23:03:47.666Z,100062.63
2023-03-12T23:05:49.267Z,100050.50
2023-03-12T23:07:50.897Z,100055.09
2023-03-12T23:09:53.421Z,100048.63
2023-03-12T23:11:55.015Z,100053.19
2023-03-12T23:13:56.595Z,100048.31
2023-03-12T23:16:01.682Z,100052.53
2023-03-12T23:18:04.651Z,100056.41
2023-03-12T23:20:07.197Z,100054.53
2023-03-12T23:22:09.535Z,100055.09
2023-03-12T23:24:11.128Z,100060.72
2023-03-12T23:26:14.664Z,100066.94
2023-03-12T23:28:16.700Z,100059.25
2023-03-12T23:30:18.276Z,100055.91
2023-03-12T23:32:19.966Z,100048.31
2023-03-12T23:34:23.012Z,100045.31
2023-03-12T23:36:25.604Z,100046.09
2023-03-12T23:38:28.646Z,100046.63
2023-03-12T23:40:30.260Z,100042.91